Time;durP1;ratioP1;P1;durP2;ratioP2;P2;SDS_P1;SDS_P2;PMS_P1;PMS_P2;Temp;Humidity;BMP_temperature;BMP_pressure;BME280_temperature;BME280_humidity;BME280_pressure;Samples;Min_cycle;Max_cycle;Signal;HPM_P1;HPM_P2
2023/03/15 00:01:08;;;;;;;;;;;;;;;3.44;65.57;100275.69;4178023;28;20016;-65
2023/03/15 00:03:11;;;;;;;;;;;;;;;3.39;65.58;100281.47;4176678;28;20031;-64
2023/03/15 00:05:14;;;;;;;;;;;;;;;3.39;65.87;100285.97;4177987;28;20031;-62
2023/03/15 00:07:16;;;;;;;;;;;;;;;3.39;65.79;100297.47;4176845;28;19990;-63
2023/03/15 00:09:18;;;;;;;;;;;;;;;3.37;65.70;100295.91;4178129;28;20020;-63
2023/03/15 00:11:20;;;;;;;;;;;;;;;3.38;65.78;100305.63;4177206;28;20033;-62
2023/03/15 00:13:22;;;;;;;;;;;;;;;3.39;65.45;100310.81;4177725;28;20374;-63
2023/03/15 00:15:24;;;;;;;;;;;;;;;3.31;65.74;100304.50;4177219;28;20463;-62
2023/03/15 00:17:27;;;;;;;;;;;;;;;3.28;65.64;100305.63;4192374;28;20035;-62
2023/03/15 00:19:29;;;;;;;;;;;;;;;3.25;65.86;100312.09;4177490;28;20023;-63
2023/03/15 00:21:33;;;;;;;;;;;;;;;3.23;65.89;100314.06;4184008;28;20032;-64
2023/03/15 00:23:35;;;;;;;;;;;;;;;3.22;66.21;100319.53;4177643;28;20023;-64
2023/03/15 00:25:37;;;;;;;;;;;;;;;3.21;66.30;100317.84;4178480;28;20028;-64
2023/03/15 00:27:39;;;;;;;;;;;;;;;3.20;66.85;100325.00;4177790;28;20039;-61
2023/03/15 00:29:41;;;;;;;;;;;;;;;3.19;66.43;100327.81;4178088;28;20011;-63
2023/03/15 00:31:44;;;;;;;;;;;;;;;3.16;66.64;100334.28;4176348;28;20016;-63
2023/03/15 00:33:46;;;;;;;;;;;;;;;3.13;66.59;100333.72;4178149;28;19929;-62
2023/03/15 00:35:52;;;;;;;;;;;;;;;3.12;66.36;100342.69;4178332;28;20401;-63
2023/03/15 00:37:56;;;;;;;;;;;;;;;3.06;66.31;100341.44;4178301;28;20532;-63
2023/03/15 00:39:58;;;;;;;;;;;;;;;3.04;66.53;100354.91;4180998;28;20020;-64
2023/03/15 00:42:00;;;;;;;;;;;;;;;3.04;66.72;100352.25;4180013;28;20339;-64
2023/03/15 00:44:03;;;;;;;;;;;;;;;3.03;66.46;100355.88;4180902;28;20024;-64
2023/03/15 00:46:05;;;;;;;;;;;;;;;3.00;66.52;100360.66;4180680;28;20418;-64
2023/03/15 00:48:07;;;;;;;;;;;;;;;2.94;66.63;100351.38;4180546;28;20039;-62
2023/03/15 00:50:09;;;;;;;;;;;;;;;2.89;66.80;100359.78;4180793;28;20012;-64
2023/03/15 00:52:12;;;;;;;;;;;;;;;2.86;66.66;100357.38;4180501;28;20020;-64
2023/03/15 00:54:15;;;;;;;;;;;;;;;2.84;66.80;100356.69;4180663;28;20422;-64
2023/03/15 00:56:18;;;;;;;;;;;;;;;2.80;66.91;100360.59;4180854;28;20008;-63
2023/03/15 00:58:20;;;;;;;;;;;;;;;2.79;67.09;100358.94;4179702;28;20414;-64
2023/03/15 01:00:23;;;;;;;;;;;;;;;2.81;67.11;100369.47;4181243;28;20027;-62
2023/03/15 01:02:25;;;;;;;;;;;;;;;2.85;67.23;100365.53;4169676;28;20012;-60
2023/03/15 01:04:27;;;;;;;;;;;;;;;2.84;66.82;100364.69;4180658;28;20031;-62
2023/03/15 01:06:29;;;;;;;;;;;;;;;2.82;67.08;100368.47;4166514;28;20024;-61
2023/03/15 01:08:34;;;;;;;;;;;;;;;2.82;66.82;100371.13;4179619;28;20055;-61
2023/03/15 01:10:37;;;;;;;;;;;;;;;2.77;66.75;100373.38;4179982;28;20027;-64
2023/03/15 01:12:39;;;;;;;;;;;;;;;2.74;67.11;100378.97;4179961;28;20016;-64
2023/03/15 01:14:41;;;;;;;;;;;;;;;2.73;66.86;100379.94;4180510;28;20454;-63
2023/03/15 01:16:43;;;;;;;;;;;;;;;2.70;67.14;100384.56;4179267;28;20126;-64
2023/03/15 01:18:45;;;;;;;;;;;;;;;2.70;67.13;100389.06;4179841;28;20429;-64
2023/03/15 01:20:47;;;;;;;;;;;;;;;2.69;67.19;100388.22;4180631;28;20003;-63
2023/03/15 01:22:49;;;;;;;;;;;;;;;2.70;67.19;100383.75;4179466;28;20024;-64
2023/03/15 01:24:51;;;;;;;;;;;;;;;2.67;67.25;100392.84;4169795;28;20020;-64
2023/03/15 01:26:55;;;;;;;;;;;;;;;2.67;66.97;100402.69;4180064;28;20019;-62
2023/03/15 01:28:57;;;;;;;;;;;;;;;2.67;67.24;100405.34;4179744;28;20012;-64
2023/03/15 01:31:00;;;;;;;;;;;;;;;2.65;67.28;100410.81;4179240;28;20007;-64
2023/03/15 01:33:02;;;;;;;;;;;;;;;2.54;67.02;100392.25;4194512;28;20019;-64
2023/03/15 01:35:05;;;;;;;;;;;;;;;2.62;67.50;100412.91;4194790;28;19929;-64
2023/03/15 01:37:08;;;;;;;;;;;;;;;2.58;67.20;100412.31;4178367;28;20019;-64
2023/03/15 01:39:15;;;;;;;;;;;;;;;2.57;67.49;100407.97;4195729;28;20414;-65
2023/03/15 01:41:20;;;;;;;;;;;;;;;2.57;67.31;100415.97;4194672;28;20089;-64
2023/03/15 01:43:24;;;;;;;;;;;;;;;2.51;67.53;100417.34;4194898;28;20023;-64
2023/03/15 01:45:48;;;;;;;;;;;;;;;2.49;67.63;100429.97;4178913;28;20027;-64
2023/03/15 01:47:52;;;;;;;;;;;;;;;2.49;67.76;100429.09;4169589;28;20020;-64
2023/03/15 01:49:56;;;;;;;;;;;;;;;2.45;67.69;100436.53;4195140;28;20019;-64
2023/03/15 01:51:58;;;;;;;;;;;;;;;2.43;67.83;100429.63;4194016;28;20282;-64
2023/03/15 01:54:08;;;;;;;;;;;;;;;2.40;68.03;100430.75;4170773;28;20032;-64
2023/03/15 01:56:10;;;;;;;;;;;;;;;2.37;68.15;100427.47;4170497;28;19933;-64
2023/03/15 01:58:13;;;;;;;;;;;;;;;2.34;68.05;100432.13;4195273;28;20024;-63
2023/03/15 02:00:20;;;;;;;;;;;;;;;2.36;68.31;100428.47;4178293;28;20533;-64
2023/03/15 02:02:30;;;;;;;;;;;;;;;2.36;68.08;100428.47;4193475;28;20016;-64
2023/03/15 02:04:34;;;;;;;;;;;;;;;2.35;68.35;100430.28;4179504;28;20023;-64
2023/03/15 02:06:36;;;;;;;;;;;;;;;2.37;68.21;100433.69;4179457;28;20045;-64
2023/03/15 02:08:39;;;;;;;;;;;;;;;2.36;68.23;100439.97;4179046;28;20036;-62
2023/03/15 02:10:42;;;;;;;;;;;;;;;2.34;68.06;100440.09;4178602;28;20417;-64
2023/03/15 02:12:46;;;;;;;;;;;;;;;2.32;68.14;100438.53;4170627;28;20020;-64
2023/03/15 02:14:48;;;;;;;;;;;;;;;2.33;68.24;100440.25;4169927;28;20023;-62
2023/03/15 02:16:53;;;;;;;;;;;;;;;2.34;68.19;100442.78;4193488;28;20011;-64
2023/03/15 02:18:55;;;;;;;;;;;;;;;2.32;67.98;100438.53;4178186;28;20058;-62
2023/03/15 02:21:01;;;;;;;;;;;;;;;2.26;68.11;100441.75;4178205;28;20008;-63
2023/03/15 02:23:03;;;;;;;;;;;;;;;2.26;68.07;100445.25;4178830;28;20012;-64
2023/03/15 02:25:06;;;;;;;;;;;;;;;2.22;68.08;100443.81;4178369;28;20028;-64
2023/03/15 02:27:09;;;;;;;;;;;;;;;2.16;68.20;100458.53;4169292;28;20031;-63
2023/03/15 02:29:12;;;;;;;;;;;;;;;2.14;68.53;100454.28;4179760;28;20565;-63
2023/03/15 02:31:14;;;;;;;;;;;;;;;2.15;68.62;100463.97;4179658;28;20019;-64
2023/03/15 02:33:17;;;;;;;;;;;;;;;2.11;68.43;100467.88;4178191;28;20020;-64
2023/03/15 02:35:23;;;;;;;;;;;;;;;2.11;68.59;100467.88;4179143;28;20015;-64
2023/03/15 02:37:27;;;;;;;;;;;;;;;2.09;68.70;100470.66;4170166;28;19940;-64
2023/03/15 02:39:29;;;;;;;;;;;;;;;2.03;68.78;100460.50;4169152;28;20498;-64
2023/03/15 02:41:32;;;;;;;;;;;;;;;2.00;68.85;100473.25;4193366;28;20028;-63
2023/03/15 02:43:35;;;;;;;;;;;;;;;1.96;69.00;100476.16;4169314;28;20019;-62
2023/03/15 02:45:38;;;;;;;;;;;;;;;1.92;69.09;100473.88;4177609;28;20031;-63
2023/03/15 02:47:41;;;;;;;;;;;;;;;1.89;69.24;100477.63;4177674;28;20532;-63
2023/03/15 02:49:43;;;;;;;;;;;;;;;1.89;69.59;100479.47;4179002;28;20028;-64
2023/03/15 02:51:46;;;;;;;;;;;;;;;1.89;69.46;100476.81;4194024;28;20448;-62
2023/03/15 02:53:48;;;;;;;;;;;;;;;1.89;69.45;100480.31;4178565;28;20094;-64
2023/03/15 02:55:50;;;;;;;;;;;;;;;1.87;69.64;100486.75;4178749;28;20004;-63
2023/03/15 02:57:52;;;;;;;;;;;;;;;1.86;69.53;100493.03;4169607;28;19948;-63
2023/03/15 02:59:55;;;;;;;;;;;;;;;1.87;69.66;100489.41;4178197;28;20028;-63
2023/03/15 03:01:59;;;;;;;;;;;;;;;1.87;69.70;100495.56;4175070;28;20028;-63
2023/03/15 03:04:01;;;;;;;;;;;;;;;1.85;69.60;100496.66;4176828;28;20027;-64
2023/03/15 03:06:03;;;;;;;;;;;;;;;1.85;69.64;100502.00;4178737;28;20032;-63
2023/03/15 03:08:05;;;;;;;;;;;;;;;1.82;69.60;100504.91;4193584;28;20011;-61
2023/03/15 03:10:07;;;;;;;;;;;;;;;1.79;69.87;100504.19;4177388;28;20442;-63
2023/03/15 03:12:19;;;;;;;;;;;;;;;1.80;69.88;100508.56;4175851;28;20019;-60
2023/03/15 03:14:23;;;;;;;;;;;;;;;1.79;69.94;100517.50;4176654;28;20031;-65
2023/03/15 03:16:25;;;;;;;;;;;;;;;1.78;69.96;100515.81;4177458;28;20027;-64
2023/03/15 03:18:29;;;;;;;;;;;;;;;1.74;70.02;100508.19;4178385;28;19929;-62
2023/03/15 03:20:32;;;;;;;;;;;;;;;1.70;70.19;100512.94;4193665;28;20101;-61
2023/03/15 03:22:34;;;;;;;;;;;;;;;1.69;70.37;100523.72;4192819;28;20501;-63
2023/03/15 03:24:36;;;;;;;;;;;;;;;1.68;70.47;100522.00;4185172;28;20454;-62
2023/03/15 03:26:38;;;;;;;;;;;;;;;1.68;70.64;100522.88;4174276;28;20015;-63
2023/03/15 03:28:40;;;;;;;;;;;;;;;1.71;70.90;100527.94;4168597;28;20019;-63
2023/03/15 03:30:42;;;;;;;;;;;;;;;1.75;70.72;100531.19;4178209;28;20020;-63
2023/03/15 03:32:44;;;;;;;;;;;;;;;1.78;70.66;100539.78;4191953;28;20007;-63
2023/03/15 03:34:49;;;;;;;;;;;;;;;1.77;70.53;100530.09;4168916;28;20598;-60
2023/03/15 03:36:54;;;;;;;;;;;;;;;1.75;70.50;100533.84;4177059;28;20000;-61
2023/03/15 03:39:10;;;;;;;;;;;;;;;1.74;70.59;100521.50;4176674;28;19925;-63
2023/03/15 03:41:12;;;;;;;;;;;;;;;1.74;70.81;100535.69;4169605;28;20016;-62
2023/03/15 03:43:14;;;;;;;;;;;;;;;1.76;70.88;100541.72;4176085;28;20388;-64
2023/03/15 03:45:16;;;;;;;;;;;;;;;1.77;70.70;100542.56;4177401;28;20430;-63
2023/03/15 03:47:20;;;;;;;;;;;;;;;1.79;70.80;100541.47;4176015;28;20016;-64
2023/03/15 03:49:22;;;;;;;;;;;;;;;1.77;70.71;100543.44;4177032;28;20020;-63
2023/03/15 03:51:26;;;;;;;;;;;;;;;1.75;70.75;100553.34;4176486;28;20020;-62
2023/03/15 03:53:28;;;;;;;;;;;;;;;1.71;70.89;100556.38;4177598;28;20016;-64
2023/03/15 03:55:32;;;;;;;;;;;;;;;1.67;70.95;100555.78;4177884;28;20052;-63
2023/03/15 03:57:35;;;;;;;;;;;;;;;1.67;71.18;100554.94;4175723;28;20031;-63
2023/03/15 03:59:38;;;;;;;;;;;;;;;1.67;71.24;100560.25;4176418;28;20893;-62
2023/03/15 04:01:41;;;;;;;;;;;;;;;1.65;71.29;100565.72;4193182;28;20019;-64
2023/03/15 04:03:43;;;;;;;;;;;;;;;1.64;71.33;100568.50;4177817;28;20373;-64
2023/03/15 04:05:51;;;;;;;;;;;;;;;1.63;71.49;100565.00;4175764;28;20015;-63
2023/03/15 04:07:57;;;;;;;;;;;;;;;1.59;71.46;100564.38;4169592;28;20012;-63
2023/03/15 04:10:05;;;;;;;;;;;;;;;1.58;71.44;100573.34;4169373;28;20043;-62
2023/03/15 04:12:09;;;;;;;;;;;;;;;1.62;71.48;100576.59;4192899;28;20019;-65
2023/03/15 04:14:13;;;;;;;;;;;;;;;1.62;71.38;100576.59;4179961;28;20381;-63
2023/03/15 04:16:17;;;;;;;;;;;;;;;1.59;71.28;100579.53;4178523;28;20007;-60
2023/03/15 04:18:36;;;;;;;;;;;;;;;1.55;71.38;100580.72;4178788;28;20352;-64
2023/03/15 04:20:45;;;;;;;;;;;;;;;1.52;71.33;100587.16;4163160;28;20052;-61
2023/03/15 04:22:48;;;;;;;;;;;;;;;1.53;71.49;100585.31;4180490;28;20063;-64
2023/03/15 04:25:00;;;;;;;;;;;;;;;1.54;71.40;100589.69;4196535;28;20028;-63
2023/03/15 04:27:21;;;;;;;;;;;;;;;1.52;71.24;100589.81;4180021;28;20028;-64
2023/03/15 04:29:51;;;;;;;;;;;;;;;1.50;71.38;100594.41;4178243;28;20687;-64
2023/03/15 04:32:16;;;;;;;;;;;;;;;1.50;71.39;100602.38;4178814;28;20056;-64
2023/03/15 04:34:27;;;;;;;;;;;;;;;1.50;71.48;100591.72;4171635;28;20560;-64
2023/03/15 04:36:47;;;;;;;;;;;;;;;1.48;71.46;100599.00;4179853;28;20020;-64
2023/03/15 04:39:16;;;;;;;;;;;;;;;1.44;71.48;100598.41;4178909;28;20050;-64
2023/03/15 04:41:26;;;;;;;;;;;;;;;1.42;71.45;100605.66;4179785;28;19986;-63
2023/03/15 04:43:37;;;;;;;;;;;;;;;1.39;71.48;100611.22;4180270;28;20315;-63
2023/03/15 04:46:01;;;;;;;;;;;;;;;1.36;71.54;100607.94;4184284;28;20019;-63
2023/03/15 04:48:32;;;;;;;;;;;;;;;1.31;71.84;100610.97;4179316;28;20383;-63
2023/03/15 04:50:53;;;;;;;;;;;;;;;1.33;71.98;100606.38;4186705;28;19963;-64
2023/03/15 04:53:08;;;;;;;;;;;;;;;1.32;71.98;100612.69;4171839;28;20023;-63
2023/03/15 04:55:36;;;;;;;;;;;;;;;1.29;72.04;100618.25;4180577;28;19960;-60
2023/03/15 04:57:42;;;;;;;;;;;;;;;1.24;72.29;100615.94;4179498;28;20038;-64
2023/03/15 05:00:23;;;;;;;;;;;;;;;1.21;72.16;100624.16;4188057;28;20015;-64
2023/03/15 05:02:44;;;;;;;;;;;;;;;1.24;72.23;100626.56;4186146;28;19982;-64
2023/03/15 05:05:05;;;;;;;;;;;;;;;1.25;72.39;100630.94;4185453;28;20024;-64
2023/03/15 05:07:36;;;;;;;;;;;;;;;1.23;72.37;100634.69;4178948;28;19964;-63
2023/03/15 05:09:56;;;;;;;;;;;;;;;1.24;72.37;100639.03;4179497;28;20020;-62
2023/03/15 05:12:12;;;;;;;;;;;;;;;1.20;72.33;100643.72;4176737;28;20262;-62
2023/03/15 05:14:54;;;;;;;;;;;;;;;1.19;72.49;100644.72;4210244;28;20457;-62
2023/03/15 05:17:25;;;;;;;;;;;;;;;1.15;72.62;100653.06;4209604;28;19966;-64
2023/03/15 05:19:56;;;;;;;;;;;;;;;1.14;72.76;100662.00;4184548;28;19971;-62
2023/03/15 05:22:24;;;;;;;;;;;;;;;1.12;72.69;100663.94;4194615;28;20027;-65
2023/03/15 05:24:49;;;;;;;;;;;;;;;1.07;72.85;100669.59;4182770;28;20024;-64
2023/03/15 05:27:12;;;;;;;;;;;;;;;1.08;73.02;100665.97;4180425;28;20016;-64
2023/03/15 05:29:28;;;;;;;;;;;;;;;1.10;72.95;100676.47;4179221;28;20051;-64
2023/03/15 05:31:51;;;;;;;;;;;;;;;1.07;72.81;100678.41;4179155;28;20453;-64
2023/03/15 05:34:25;;;;;;;;;;;;;;;1.07;73.00;100681.06;4175596;28;20369;-60
2023/03/15 05:36:27;;;;;;;;;;;;;;;1.01;72.76;100678.88;4178508;28;20019;-64
2023/03/15 05:38:48;;;;;;;;;;;;;;;0.98;72.93;100688.91;4179504;28;19924;-62
2023/03/15 05:41:00;;;;;;;;;;;;;;;0.95;73.08;100691.81;4176872;28;20031;-60
2023/03/15 05:43:08;;;;;;;;;;;;;;;0.93;73.49;100696.41;4177919;28;20020;-65
2023/03/15 05:45:25;;;;;;;;;;;;;;;0.94;73.69;100690.09;4178139;28;20019;-64
2023/03/15 05:47:56;;;;;;;;;;;;;;;0.98;73.68;100702.22;4177220;28;20019;-63
2023/03/15 05:50:07;;;;;;;;;;;;;;;1.04;73.40;100694.59;4192842;28;20038;-62
2023/03/15 05:52:34;;;;;;;;;;;;;;;1.06;73.36;100708.63;4173385;28;20023;-65
2023/03/15 05:54:59;;;;;;;;;;;;;;;1.08;73.20;100700.53;4175600;28;20385;-64
2023/03/15 05:57:19;;;;;;;;;;;;;;;1.10;73.16;100705.75;4178159;28;20455;-63
2023/03/15 05:59:57;;;;;;;;;;;;;;;1.12;73.29;100712.66;4180304;28;19925;-63
2023/03/15 06:02:15;;;;;;;;;;;;;;;1.15;73.14;100717.75;4178259;28;20349;-64
2023/03/15 06:04:28;;;;;;;;;;;;;;;1.19;73.36;100721.00;4178584;28;20027;-64
2023/03/15 06:06:32;;;;;;;;;;;;;;;1.25;73.48;100728.53;4177253;28;20007;-63
2023/03/15 06:08:34;;;;;;;;;;;;;;;1.28;73.44;100730.13;4179081;28;20047;-62
2023/03/15 06:10:36;;;;;;;;;;;;;;;1.31;73.27;100738.69;4194275;28;20155;-64
2023/03/15 06:12:43;;;;;;;;;;;;;;;1.33;73.25;100736.75;4174673;28;20024;-65
2023/03/15 06:14:45;;;;;;;;;;;;;;;1.41;72.91;100738.84;4175932;28;20027;-66
2023/03/15 06:16:47;;;;;;;;;;;;;;;1.46;72.96;100746.47;4178804;28;20023;-64
2023/03/15 06:18:49;;;;;;;;;;;;;;;1.50;72.71;100758.59;4168641;28;20024;-63
2023/03/15 06:20:53;;;;;;;;;;;;;;;1.54;72.54;100752.06;4193711;28;20019;-64
2023/03/15 06:22:55;;;;;;;;;;;;;;;1.57;72.43;100758.00;4175970;28;20450;-65
2023/03/15 06:25:11;;;;;;;;;;;;;;;1.60;72.27;100765.75;4178110;28;20023;-64
2023/03/15 06:27:14;;;;;;;;;;;;;;;1.65;72.30;100769.88;4178383;28;20016;-64
2023/03/15 06:29:16;;;;;;;;;;;;;;;1.68;72.37;100780.25;4169780;28;20087;-64
2023/03/15 06:31:22;;;;;;;;;;;;;;;1.71;72.27;100782.69;4193071;28;20019;-64
2023/03/15 06:33:38;;;;;;;;;;;;;;;1.74;72.19;100787.78;4169464;28;20028;-65
2023/03/15 06:35:45;;;;;;;;;;;;;;;1.79;72.54;100785.63;4193544;28;19924;-64
2023/03/15 06:37:48;;;;;;;;;;;;;;;1.81;73.01;100786.34;4166194;28;20012;-62
2023/03/15 06:39:52;;;;;;;;;;;;;;;1.85;73.27;100794.94;4168219;28;20024;-64
2023/03/15 06:41:57;;;;;;;;;;;;;;;1.86;73.71;100797.50;4167879;28;19925;-64
2023/03/15 06:44:00;;;;;;;;;;;;;;;1.90;74.20;100800.78;4169511;28;20037;-64
2023/03/15 06:46:02;;;;;;;;;;;;;;;1.92;74.36;100801.50;4169603;28;20023;-64
2023/03/15 06:48:06;;;;;;;;;;;;;;;1.97;74.67;100812.63;4170541;28;20012;-62
2023/03/15 06:50:09;;;;;;;;;;;;;;;1.97;74.92;100807.31;4194049;28;20011;-65
2023/03/15 06:52:11;;;;;;;;;;;;;;;1.99;75.42;100810.69;4177326;28;20020;-63
2023/03/15 06:54:15;;;;;;;;;;;;;;;2.01;75.72;100811.44;4178081;28;20056;-64
2023/03/15 06:56:17;;;;;;;;;;;;;;;1.99;76.02;100813.34;4194332;28;20030;-64
2023/03/15 06:58:19;;;;;;;;;;;;;;;2.00;76.22;100809.72;4177621;28;20012;-63
2023/03/15 07:00:21;;;;;;;;;;;;;;;1.96;76.35;100819.78;4179315;28;20454;-64
2023/03/15 07:02:23;;;;;;;;;;;;;;;1.96;76.39;100825.13;4178560;28;19964;-64
2023/03/15 07:04:25;;;;;;;;;;;;;;;1.95;76.64;100819.91;4194043;28;20015;-64
2023/03/15 07:06:28;;;;;;;;;;;;;;;1.93;76.60;100814.69;4177197;28;20023;-64
2023/03/15 07:08:30;;;;;;;;;;;;;;;1.94;76.81;100823.53;4178045;28;20016;-62
2023/03/15 07:10:33;;;;;;;;;;;;;;;1.96;76.66;100822.44;4179307;28;20023;-64
2023/03/15 07:12:35;;;;;;;;;;;;;;;2.00;76.78;100823.06;4178051;28;20020;-64
2023/03/15 07:14:37;;;;;;;;;;;;;;;2.00;76.69;100828.38;4178671;28;20029;-63
2023/03/15 07:16:39;;;;;;;;;;;;;;;1.99;76.52;100832.00;4177823;28;20027;-64
2023/03/15 07:18:41;;;;;;;;;;;;;;;2.02;76.91;100830.94;4178743;28;20027;-63
2023/03/15 07:20:43;;;;;;;;;;;;;;;2.06;76.95;100830.56;4178038;28;20023;-64
2023/03/15 07:22:45;;;;;;;;;;;;;;;2.10;76.81;100829.38;4177625;28;20028;-64
2023/03/15 07:24:50;;;;;;;;;;;;;;;2.17;76.52;100835.91;4177563;28;20526;-64
2023/03/15 07:26:55;;;;;;;;;;;;;;;2.25;76.27;100832.63;4178252;28;20015;-64
2023/03/15 07:28:57;;;;;;;;;;;;;;;2.30;75.51;100830.47;4178590;28;20437;-63
2023/03/15 07:30:59;;;;;;;;;;;;;;;2.38;75.53;100834.34;4178605;28;20018;-64
2023/03/15 07:33:01;;;;;;;;;;;;;;;2.44;75.20;100834.69;4177888;28;20380;-64
2023/03/15 07:35:03;;;;;;;;;;;;;;;2.49;74.66;100837.84;4178476;28;20031;-63
2023/03/15 07:37:05;;;;;;;;;;;;;;;2.55;74.40;100841.84;4176763;28;20028;-63
2023/03/15 07:39:07;;;;;;;;;;;;;;;2.59;74.02;100843.28;4178560;28;19963;-64
2023/03/15 07:41:09;;;;;;;;;;;;;;;2.63;73.80;100833.22;4178209;28;20015;-61
2023/03/15 07:43:17;;;;;;;;;;;;;;;2.68;73.59;100839.91;4176442;28;19925;-64
2023/03/15 07:45:21;;;;;;;;;;;;;;;2.72;72.75;100839.66;4192897;28;20360;-64
2023/03/15 07:47:22;;;;;;;;;;;;;;;2.73;72.33;100844.00;4176815;28;20015;-62
2023/03/15 07:49:24;;;;;;;;;;;;;;;2.77;72.32;100845.44;4177318;28;20020;-63
2023/03/15 07:51:26;;;;;;;;;;;;;;;2.84;72.56;100849.34;4177745;28;20019;-63
2023/03/15 07:53:28;;;;;;;;;;;;;;;2.89;72.09;100849.81;4178073;28;20020;-64
2023/03/15 07:55:31;;;;;;;;;;;;;;;2.91;71.50;100850.50;4176310;28;20024;-64
2023/03/15 07:57:33;;;;;;;;;;;;;;;2.97;71.37;100851.84;4178058;28;20032;-62
2023/03/15 07:59:36;;;;;;;;;;;;;;;3.00;70.93;100854.25;4177979;28;20031;-63
2023/03/15 08:01:38;;;;;;;;;;;;;;;3.04;70.72;100861.03;4176978;28;20486;-63
2023/03/15 08:03:41;;;;;;;;;;;;;;;3.09;70.01;100860.66;4177825;28;19978;-62
2023/03/15 08:05:43;;;;;;;;;;;;;;;3.13;69.95;100862.94;4177364;28;20395;-64
2023/03/15 08:07:45;;;;;;;;;;;;;;;3.13;69.56;100860.28;4177981;28;20498;-65
2023/03/15 08:09:47;;;;;;;;;;;;;;;3.14;69.43;100870.00;4177956;28;20036;-64
2023/03/15 08:11:49;;;;;;;;;;;;;;;3.18;69.34;100874.13;4177386;28;20007;-64
2023/03/15 08:13:51;;;;;;;;;;;;;;;3.23;68.97;100869.25;4177930;28;20015;-64
2023/03/15 08:15:54;;;;;;;;;;;;;;;3.26;68.80;100868.16;4178028;28;20012;-64
2023/03/15 08:17:57;;;;;;;;;;;;;;;3.32;68.98;100867.59;4177324;28;20015;-62
2023/03/15 08:20:03;;;;;;;;;;;;;;;3.35;68.96;100862.03;4177805;28;20023;-63
2023/03/15 08:22:06;;;;;;;;;;;;;;;3.38;69.07;100872.44;4175741;28;20015;-64
2023/03/15 08:24:08;;;;;;;;;;;;;;;3.43;68.85;100874.72;4177694;28;19979;-63
2023/03/15 08:26:10;;;;;;;;;;;;;;;3.47;68.92;100867.34;4178579;28;20047;-63
2023/03/15 08:28:12;;;;;;;;;;;;;;;3.48;68.51;100872.56;4177544;28;20482;-62
2023/03/15 08:30:14;;;;;;;;;;;;;;;3.49;68.58;100876.06;4177291;28;20019;-63
2023/03/15 08:32:18;;;;;;;;;;;;;;;3.56;68.70;100888.78;4176649;28;20044;-63
2023/03/15 08:34:20;;;;;;;;;;;;;;;3.58;68.79;100878.81;4177359;28;20019;-62
2023/03/15 08:36:22;;;;;;;;;;;;;;;3.61;68.52;100886.56;4177137;28;20008;-62
2023/03/15 08:38:25;;;;;;;;;;;;;;;3.61;67.97;100886.56;4177617;28;20020;-61
2023/03/15 08:40:26;;;;;;;;;;;;;;;3.61;67.99;100886.56;4177748;28;20023;-63
2023/03/15 08:42:29;;;;;;;;;;;;;;;3.64;68.20;100896.16;4176766;28;20011;-63
2023/03/15 08:44:31;;;;;;;;;;;;;;;3.66;68.03;100896.88;4178043;28;19996;-62
2023/03/15 08:46:33;;;;;;;;;;;;;;;3.69;68.20;100907.28;4176285;28;20380;-61
2023/03/15 08:48:36;;;;;;;;;;;;;;;3.70;68.15;100900.13;4177803;28;20016;-61
2023/03/15 08:50:38;;;;;;;;;;;;;;;3.72;68.25;100901.69;4177347;28;20028;-62
2023/03/15 08:52:41;;;;;;;;;;;;;;;3.75;68.23;100913.97;4174371;28;20067;-61
2023/03/15 08:54:43;;;;;;;;;;;;;;;3.76;68.11;100915.63;4177669;28;20023;-62
2023/03/15 08:56:45;;;;;;;;;;;;;;;3.76;68.11;100910.28;4177037;28;20372;-62
2023/03/15 08:58:47;;;;;;;;;;;;;;;3.76;68.14;100908.50;4177877;28;20044;-62
2023/03/15 09:00:50;;;;;;;;;;;;;;;3.77;68.17;100914.66;4180453;28;20020;-59
2023/03/15 09:02:52;;;;;;;;;;;;;;;3.81;68.03;100913.44;4179909;28;20020;-61
2023/03/15 09:04:55;;;;;;;;;;;;;;;3.84;67.80;100918.53;4180076;28;19971;-61
2023/03/15 09:06:57;;;;;;;;;;;;;;;3.87;67.79;100920.06;4180397;28;20019;-59
2023/03/15 09:08:59;;;;;;;;;;;;;;;3.89;67.72;100924.34;4180589;28;20007;-62
2023/03/15 09:11:02;;;;;;;;;;;;;;;3.95;67.89;100931.84;4179388;28;20040;-62
2023/03/15 09:13:04;;;;;;;;;;;;;;;3.99;67.53;100934.25;4180121;28;20481;-63
2023/03/15 09:15:07;;;;;;;;;;;;;;;4.00;67.36;100944.81;4180601;28;20481;-62
2023/03/15 09:17:10;;;;;;;;;;;;;;;4.00;67.51;100942.13;4179221;28;20023;-62
2023/03/15 09:19:12;;;;;;;;;;;;;;;4.01;67.47;100954.50;4180248;28;20011;-62
2023/03/15 09:21:15;;;;;;;;;;;;;;;4.01;67.52;100956.34;4180202;28;20024;-60
2023/03/15 09:23:17;;;;;;;;;;;;;;;4.02;67.58;100961.56;4179242;28;20016;-62
2023/03/15 09:25:19;;;;;;;;;;;;;;;4.04;67.50;100958.75;4180612;28;20382;-62
2023/03/15 09:27:21;;;;;;;;;;;;;;;4.05;67.11;100965.81;4179872;28;20027;-63
2023/03/15 09:29:23;;;;;;;;;;;;;;;4.06;66.83;100964.81;4177951;28;20015;-62
2023/03/15 09:31:25;;;;;;;;;;;;;;;4.07;66.60;100971.84;4180338;28;20453;-63
2023/03/15 09:33:27;;;;;;;;;;;;;;;4.07;66.15;100974.53;4179492;28;20012;-63
2023/03/15 09:35:29;;;;;;;;;;;;;;;4.09;66.61;100975.25;4179887;28;20024;-62
2023/03/15 09:37:32;;;;;;;;;;;;;;;4.13;66.96;100977.53;4179791;28;20580;-63
2023/03/15 09:39:34;;;;;;;;;;;;;;;4.26;67.33;100977.38;4179707;28;20023;-63
2023/03/15 09:41:43;;;;;;;;;;;;;;;4.42;67.32;100976.91;4179121;28;20031;-63
2023/03/15 09:43:58;;;;;;;;;;;;;;;4.51;66.65;100972.56;4179799;28;20027;-64
2023/03/15 09:46:03;;;;;;;;;;;;;;;4.54;65.09;100980.34;4179785;28;19925;-62
2023/03/15 09:48:09;;;;;;;;;;;;;;;4.54;64.94;100980.34;4179311;28;20015;-63
2023/03/15 09:50:13;;;;;;;;;;;;;;;4.53;64.62;100994.69;4179910;28;20474;-64
2023/03/15 09:52:20;;;;;;;;;;;;;;;4.51;63.54;100991.28;4178660;28;20355;-63
2023/03/15 09:54:24;;;;;;;;;;;;;;;4.50;63.89;100986.94;4179069;28;20028;-63
2023/03/15 09:56:27;;;;;;;;;;;;;;;4.51;64.07;100985.94;4178718;28;20024;-63
2023/03/15 09:58:31;;;;;;;;;;;;;;;4.50;63.26;100989.63;4179371;28;20023;-63
2023/03/15 10:00:34;;;;;;;;;;;;;;;4.50;63.29;101003.81;4179775;28;20015;-63
2023/03/15 10:02:36;;;;;;;;;;;;;;;4.51;63.50;101007.34;4178177;28;20015;-63
2023/03/15 10:04:39;;;;;;;;;;;;;;;4.53;62.88;101010.75;4179037;28;20275;-64
2023/03/15 10:06:44;;;;;;;;;;;;;;;4.51;61.68;101012.69;4178877;28;20020;-62
2023/03/15 10:08:46;;;;;;;;;;;;;;;4.53;62.43;101021.44;4180027;28;20428;-64
2023/03/15 10:10:51;;;;;;;;;;;;;;;4.58;62.79;101019.22;4168834;28;20029;-64
2023/03/15 10:12:56;;;;;;;;;;;;;;;4.60;62.14;101008.41;4178790;28;20045;-64
2023/03/15 10:15:04;;;;;;;;;;;;;;;4.60;62.05;101025.28;4179655;28;19964;-63
2023/03/15 10:17:07;;;;;;;;;;;;;;;4.60;61.90;101021.78;4178826;28;20513;-64
2023/03/15 10:19:13;;;;;;;;;;;;;;;4.60;61.69;101025.28;4179527;28;20019;-62
2023/03/15 10:21:17;;;;;;;;;;;;;;;4.62;62.00;101026.00;4179068;28;20015;-64
2023/03/15 10:23:19;;;;;;;;;;;;;;;4.63;62.46;101038.41;4177434;28;20300;-64
2023/03/15 10:25:22;;;;;;;;;;;;;;;4.65;62.55;101016.88;4179087;28;20028;-64
2023/03/15 10:27:28;;;;;;;;;;;;;;;4.68;62.78;101022.78;4179453;28;19989;-65
2023/03/15 10:29:30;;;;;;;;;;;;;;;4.72;62.76;101026.06;4179149;28;20071;-63
2023/03/15 10:31:34;;;;;;;;;;;;;;;4.74;61.64;101023.28;4178545;28;19970;-64
2023/03/15 10:33:36;;;;;;;;;;;;;;;4.76;62.24;101040.88;4179006;28;20046;-65
2023/03/15 10:35:38;;;;;;;;;;;;;;;4.85;61.51;101037.41;4179698;28;20016;-62
2023/03/15 10:37:41;;;;;;;;;;;;;;;5.01;62.64;101031.56;4179182;28;20012;-63
2023/03/15 10:39:45;;;;;;;;;;;;;;;5.19;62.58;101030.97;4178749;28;20063;-65
2023/03/15 10:41:48;;;;;;;;;;;;;;;5.37;62.94;101026.63;4178859;28;20359;-61
2023/03/15 10:43:56;;;;;;;;;;;;;;;5.58;63.19;101028.41;4179086;28;20058;-61
2023/03/15 10:45:59;;;;;;;;;;;;;;;5.78;62.56;101030.13;4179546;28;20453;-64
2023/03/15 10:48:01;;;;;;;;;;;;;;;6.00;61.89;101022.81;4178083;28;19979;-64
2023/03/15 10:50:03;;;;;;;;;;;;;;;6.19;61.34;101021.13;4179108;28;20008;-63
2023/03/15 10:52:05;;;;;;;;;;;;;;;6.37;60.81;101024.81;4178001;28;20020;-64
2023/03/15 10:54:08;;;;;;;;;;;;;;;6.51;59.61;101020.00;4178937;28;20016;-64
2023/03/15 10:56:12;;;;;;;;;;;;;;;6.71;59.70;101026.16;4179104;28;20008;-62